Time;durP1;ratioP1;P1;durP2;ratioP2;P2;SDS_P1;SDS_P2;PMS_P1;PMS_P2;Temp;Humidity;BMP_temperature;BMP_pressure;BME280_temperature;BME280_humidity;BME280_pressure;Samples;Min_cycle;Max_cycle;Signal;HPM_P1;HPM_P2
2022/06/24 00:02:12;;;;;;;25.27;11.23;;;;;;;18.15;nan;100337.63;4971170;28;20031;-68
2022/06/24 00:04:38;;;;;;;14.65;10.77;;;;;;;18.14;nan;100351.22;4970753;28;20038;-67
2022/06/24 00:07:14;;;;;;;16.70;10.85;;;;;;;;;;4957268;28;20070;-67
2022/06/24 00:09:41;;;;;;;13.73;10.68;;;;;;;18.07;nan;100331.00;4970089;28;20165;-68
2022/06/24 00:12:09;;;;;;;15.88;10.50;;;;;;;18.06;nan;100326.75;4936033;28;20118;-68
2022/06/24 00:14:36;;;;;;;14.55;10.25;;;;;;;18.04;nan;100328.09;4951805;28;20565;-68
2022/06/24 00:17:04;;;;;;;14.68;11.40;;;;;;;18.03;nan;100323.84;4972211;28;20031;-69
2022/06/24 00:19:30;;;;;;;16.77;10.50;;;;;;;;;;4972368;28;20037;-68
2022/06/24 00:21:59;;;;;;;12.07;9.75;;;;;;;;;;4957007;28;20038;-68
2022/06/24 00:24:25;;;;;;;17.63;10.60;;;;;;;17.86;nan;100369.47;4972182;28;20049;-68
2022/06/24 00:26:50;;;;;;;16.73;9.50;;;;;;;17.80;nan;100272.00;4973615;28;20038;-70
2022/06/24 00:29:16;;;;;;;17.52;10.07;;;;;;;;;;4971005;28;20497;-68
2022/06/24 00:31:42;;;;;;;12.70;9.15;;;;;;;;;;4971878;28;20030;-69
2022/06/24 00:34:23;;;;;;;16.77;9.97;;;;;;;17.73;nan;100309.59;4971598;28;20413;-68
2022/06/24 00:36:49;;;;;;;14.35;9.65;;;;;;;;;;4958237;28;20285;-68
2022/06/24 00:39:14;;;;;;;16.80;10.38;;;;;;;17.62;nan;100332.81;4974354;28;20645;-68
2022/06/24 00:41:40;;;;;;;17.42;10.20;;;;;;;17.46;nan;100368.56;4956864;28;20109;-68
2022/06/24 00:44:07;;;;;;;14.20;10.20;;;;;;;;;;4972915;28;20026;-68
2022/06/24 00:46:36;;;;;;;14.68;10.00;;;;;;;;;;4971356;28;20046;-68
2022/06/24 00:49:01;;;;;;;13.07;8.65;;;;;;;;;;4974995;28;20039;-69
2022/06/24 00:51:37;;;;;;;14.63;8.55;;;;;;;;;;4974222;28;20094;-68
2022/06/24 00:54:10;;;;;;;12.32;7.30;;;;;;;;;;4974157;28;20038;-69
2022/06/24 00:56:35;;;;;;;13.77;6.95;;;;;;;16.91;nan;100314.41;4968777;28;20445;-68
2022/06/24 00:59:03;;;;;;;9.10;6.40;;;;;;;;;;4971408;28;20027;-68
2022/06/24 01:01:31;;;;;;;10.45;6.82;;;;;;;;;;4974801;28;20038;-68
2022/06/24 01:03:57;;;;;;;10.93;7.43;;;;;;;;;;4971185;28;20046;-69
2022/06/24 01:06:23;;;;;;;9.60;7.50;;;;;;;16.64;nan;100363.34;4972388;28;20043;-68
2022/06/24 01:08:49;;;;;;;9.00;7.15;;;;;;;;;;4972562;28;20026;-68
2022/06/24 01:11:22;;;;;;;12.07;7.72;;;;;;;;;;4972477;28;20039;-69
2022/06/24 01:13:47;;;;;;;11.82;6.90;;;;;;;;;;4974644;28;20390;-69
2022/06/24 01:16:12;;;;;;;13.50;7.20;;;;;;;;;;4973235;28;20042;-69
2022/06/24 01:18:37;;;;;;;13.13;7.20;;;;;;;;;;4972033;28;20276;-69
2022/06/24 01:21:03;;;;;;;11.47;7.27;;;;;;;;;;4972610;28;20038;-68
2022/06/24 01:23:28;;;;;;;9.37;7.10;;;;;;;;;;4971164;28;20758;-68
2022/06/24 01:25:53;;;;;;;11.85;6.63;;;;;;;;;;4974377;28;20046;-68
2022/06/24 01:28:19;;;;;;;9.67;6.60;;;;;;;;;;4972102;28;20165;-68
2022/06/24 01:30:44;;;;;;;9.77;7.20;;;;;;;;;;4973754;28;20342;-68
2022/06/24 01:33:09;;;;;;;10.00;7.70;;;;;;;;;;4969244;28;20051;-68
2022/06/24 01:35:34;;;;;;;10.70;6.95;;;;;;;;;;4956654;28;20447;-68
2022/06/24 01:38:00;;;;;;;12.60;7.20;;;;;;;;;;4973966;28;20121;-69
2022/06/24 01:40:25;;;;;;;8.15;6.18;;;;;;;;;;4955592;28;20296;-68
2022/06/24 01:42:50;;;;;;;9.57;6.60;;;;;;;;;;4971761;28;20045;-68
2022/06/24 01:45:16;;;;;;;10.07;7.00;;;;;;;16.27;nan;100350.28;4954428;28;20809;-69
2022/06/24 01:47:41;;;;;;;9.48;6.63;;;;;;;;;;4962949;28;20042;-68
2022/06/24 01:50:07;;;;;;;11.20;6.70;;;;;;;;;;4956341;28;20508;-68
2022/06/24 01:52:33;;;;;;;12.23;6.80;;;;;;;16.11;nan;100365.38;4972994;28;20261;-67
2022/06/24 01:54:58;;;;;;;8.02;6.35;;;;;;;;;;4972410;28;20039;-68
2022/06/24 01:57:23;;;;;;;8.85;6.05;;;;;;;;;;4969211;28;20533;-69
2022/06/24 01:59:50;;;;;;;11.88;6.47;;;;;;;;;;4973973;28;20027;-69
2022/06/24 02:02:15;;;;;;;14.88;6.28;;;;;;;;;;4971835;28;20030;-68
2022/06/24 02:04:41;;;;;;;8.80;5.90;;;;;;;;;;4973778;28;20089;-69
2022/06/24 02:07:06;;;;;;;8.70;5.67;;;;;;;;;;4973314;28;20319;-68
2022/06/24 02:13:26;;;;;;;8.63;5.63;;;;;;;;;;4969889;28;20054;-67
2022/06/24 02:15:00;;;;;;;7.30;5.90;;;;;;;;;;4968646;28;20034;-70
2022/06/24 02:17:26;;;;;;;8.13;5.57;;;;;;;15.25;nan;100310.88;4970150;28;20046;-67
2022/06/24 02:19:51;;;;;;;7.95;5.55;;;;;;;;;;4970593;28;20023;-68
2022/06/24 02:22:16;;;;;;;8.20;6.30;;;;;;;;;;4970900;28;20043;-68
2022/06/24 02:24:41;;;;;;;8.10;5.53;;;;;;;;;;4971315;28;20651;-68
2022/06/24 02:27:07;;;;;;;8.03;6.30;;;;;;;;;;4970333;28;20282;-69
2022/06/24 02:29:32;;;;;;;11.05;6.88;;;;;;;;;;4954519;28;20767;-67
2022/06/24 02:31:57;;;;;;;13.00;6.80;;;;;;;;;;4970211;28;20046;-69
2022/06/24 02:34:22;;;;;;;9.03;7.03;;;;;;;;;;4954084;28;20296;-68
2022/06/24 02:36:48;;;;;;;11.67;6.90;;;;;;;;;;4967745;28;20758;-68
2022/06/24 02:39:13;;;;;;;11.57;6.77;;;;;;;14.45;nan;100313.50;4954288;28;20277;-68
2022/06/24 02:41:38;;;;;;;7.88;6.68;;;;;;;;;;4970708;28;20272;-68
2022/06/24 02:44:04;;;;;;;9.73;7.30;;;;;;;;;;4973016;28;20041;-68
2022/06/24 02:46:29;;;;;;;12.45;7.18;;;;;;;;;;4971081;28;20287;-68
2022/06/24 02:48:54;;;;;;;11.47;7.60;;;;;;;;;;4970780;28;20053;-68
2022/06/24 02:51:20;;;;;;;13.88;7.75;;;;;;;;;;4972606;28;20351;-68
2022/06/24 02:53:45;;;;;;;12.10;7.80;;;;;;;;;;4971169;28;20347;-69
2022/06/24 02:56:14;;;;;;;12.02;7.25;;;;;;;;;;4953220;28;20809;-69
2022/06/24 02:58:40;;;;;;;11.88;8.20;;;;;;;;;;4971823;28;20034;-68
2022/06/24 03:01:05;;;;;;;11.35;7.75;;;;;;;;;;4955519;28;20035;-68
2022/06/24 03:03:31;;;;;;;10.50;7.88;;;;;;;;;;4972518;28;20081;-68
2022/06/24 03:05:56;;;;;;;11.38;7.30;;;;;;;;;;4972353;28;20065;-68
2022/06/24 03:08:23;;;;;;;14.95;8.10;;;;;;;;;;4973835;28;20035;-68
2022/06/24 03:10:49;;;;;;;12.98;7.93;;;;;;;;;;4972255;28;20039;-68
2022/06/24 03:13:15;;;;;;;13.05;8.52;;;;;;;;;;4971798;28;20047;-68
2022/06/24 03:15:40;;;;;;;15.07;7.97;;;;;;;;;;4969274;28;20045;-68
2022/06/24 03:18:05;;;;;;;10.40;8.73;;;;;;;;;;4971991;28;20129;-68
2022/06/24 03:20:31;;;;;;;12.30;9.00;;;;;;;;;;4955472;28;20035;-68
2022/06/24 03:22:56;;;;;;;13.63;8.85;;;;;;;;;;4969501;28;20175;-68
2022/06/24 03:25:22;;;;;;;11.45;8.23;;;;;;;;;;4971162;28;20039;-68
2022/06/24 03:27:47;;;;;;;15.40;9.07;;;;;;;;;;4960282;28;20370;-68
2022/06/24 03:30:13;;;;;;;13.13;9.60;;;;;;;;;;4967713;28;20300;-69
2022/06/24 03:32:38;;;;;;;13.55;9.20;;;;;;;;;;4967045;28;20276;-69
2022/06/24 03:35:04;;;;;;;10.30;9.20;;;;;;;;;;4951834;28;20565;-68
2022/06/24 03:37:30;;;;;;;14.48;9.57;;;;;;;;;;4908738;28;20577;-68
2022/06/24 03:39:56;;;;;;;27.08;20.02;;;;;;;14.01;nan;100396.53;4941878;28;20028;-67
2022/06/24 03:42:22;;;;;;;13.80;10.07;;;;;;;;;;4934976;29;20122;-68
2022/06/24 03:44:47;;;;;;;15.57;9.38;;;;;;;;;;4950215;29;20131;-69
2022/06/24 03:47:13;;;;;;;18.80;9.55;;;;;;;;;;4948238;29;20118;-69
2022/06/24 03:49:38;;;;;;;19.20;8.88;;;;;;;;;;4952378;29;20035;-69
2022/06/24 03:52:04;;;;;;;14.07;9.45;;;;;;;;;;4954345;28;20114;-68
2022/06/24 03:54:29;;;;;;;14.18;9.02;;;;;;;;;;4950613;29;20086;-68
2022/06/24 03:56:55;;;;;;;15.65;9.52;;;;;;;;;;4947822;29;20092;-68
2022/06/24 03:59:20;;;;;;;18.67;9.07;;;;;;;;;;4952710;29;20035;-69
2022/06/24 04:01:45;;;;;;;19.50;8.73;;;;;;;;;;4955009;29;20051;-69
2022/06/24 04:04:10;;;;;;;15.00;9.07;;;;;;;;;;4956686;29;20371;-69
2022/06/24 04:06:36;;;;;;;13.73;9.20;;;;;;;;;;4954226;29;20086;-68
2022/06/24 04:09:01;;;;;;;18.83;9.20;;;;;;;;;;4955658;29;20039;-69
2022/06/24 04:11:27;;;;;;;15.48;9.18;;;;;;;;;;4951344;29;20269;-70
2022/06/24 04:13:52;;;;;;;16.70;9.20;;;;;;;;;;4939404;29;20031;-70
2022/06/24 04:16:17;;;;;;;16.37;9.47;;;;;;;;;;4955003;29;20042;-69
2022/06/24 04:18:42;;;;;;;19.20;9.87;;;;;;;;;;4951301;29;20358;-69
2022/06/24 04:21:12;;;;;;;16.10;9.10;;;;;;;;;;4955043;29;20952;-70
2022/06/24 04:23:37;;;;;;;12.70;9.73;;;;;;;;;;4954421;29;20360;-70
2022/06/24 04:26:03;;;;;;;12.27;8.52;;;;;;;;;;4950522;29;20138;-69
2022/06/24 04:28:28;;;;;;;14.45;9.85;;;;;;;;;;4955179;29;20035;-70
2022/06/24 04:30:53;;;;;;;15.23;9.68;;;;;;;;;;4954201;29;20401;-70
2022/06/24 04:33:19;;;;;;;13.23;9.13;;;;;;;15.52;nan;100459.38;4954503;29;20043;-69
2022/06/24 04:35:44;;;;;;;22.15;14.43;;;;;;;;;;4953157;29;20289;-70
2022/06/24 04:38:09;;;;;;;42.50;25.23;;;;;;;;;;4954466;29;20122;-69
2022/06/24 04:40:35;;;;;;;20.93;14.50;;;;;;;;;;4948046;28;20107;-69
2022/06/24 04:43:00;;;;;;;22.40;12.73;;;;;;;;;;4954800;29;20058;-70
2022/06/24 04:45:25;;;;;;;18.08;13.30;;;;;;;;;;4955078;29;20058;-70
2022/06/24 04:47:51;;;;;;;17.03;11.77;;;;;;;;;;4951844;29;20086;-69
2022/06/24 04:50:16;;;;;;;15.30;12.57;;;;;;;;;;4953436;29;20523;-69
2022/06/24 04:52:42;;;;;;;20.45;13.57;;;;;;;16.44;nan;100454.47;4954937;29;20035;-69
2022/06/24 04:55:08;;;;;;;19.63;12.13;;;;;;;;;;4955795;29;20122;-70
2022/06/24 04:57:33;;;;;;;19.83;12.52;;;;;;;;;;4948902;29;20094;-70
2022/06/24 04:59:59;;;;;;;20.00;12.30;;;;;;;16.69;nan;100464.38;4953805;29;20039;-70
2022/06/24 05:02:24;;;;;;;26.33;13.32;;;;;;;;;;4950148;28;20105;-70
2022/06/24 05:04:50;;;;;;;17.13;11.93;;;;;;;;;;4955121;29;20050;-70
2022/06/24 05:07:15;;;;;;;18.00;13.97;;;;;;;;;;4951548;29;20597;-68
2022/06/24 05:09:40;;;;;;;18.37;12.90;;;;;;;;;;4953991;29;20292;-70
2022/06/24 05:12:06;;;;;;;19.80;12.90;;;;;;;;;;4950679;29;20051;-69
2022/06/24 05:14:31;;;;;;;25.30;14.02;;;;;;;;;;4951333;29;20042;-69
2022/06/24 05:16:57;;;;;;;20.35;13.65;;;;;;;;;;4953121;29;20038;-70
2022/06/24 05:19:22;;;;;;;22.48;13.70;;;;;;;;;;4952253;29;20075;-69
2022/06/24 05:21:48;;;;;;;17.92;13.07;;;;;;;;;;4946198;29;20047;-69
2022/06/24 05:24:13;;;;;;;24.80;13.63;;;;;;;;;;4952528;29;20414;-69
2022/06/24 05:26:41;;;;;;;19.03;13.53;;;;;;;17.67;nan;100392.44;4952455;29;20407;-69
2022/06/24 05:29:07;;;;;;;18.75;14.10;;;;;;;;;;4937357;29;20344;-70
2022/06/24 05:31:32;;;;;;;17.42;14.38;;;;;;;;;;4936091;29;20036;-70
2022/06/24 05:33:58;;;;;;;20.60;13.73;;;;;;;;;;4950083;29;20417;-70
2022/06/24 05:36:23;;;;;;;20.93;14.73;;;;;;;18.06;nan;100452.00;4949744;29;20098;-69
2022/06/24 05:38:48;;;;;;;26.63;14.50;;;;;;;;;;4954366;29;20050;-70
2022/06/24 05:41:14;;;;;;;22.13;14.15;;;;;;;18.24;nan;100437.25;4950040;29;20043;-69
2022/06/24 05:43:39;;;;;;;20.65;14.25;;;;;;;18.43;nan;100417.94;4950659;29;20039;-70
2022/06/24 05:46:05;;;;;;;22.95;14.07;;;;;;;18.47;nan;100414.44;4948905;29;20039;-70
2022/06/24 05:48:31;;;;;;;22.02;15.05;;;;;;;18.63;nan;100430.34;4946521;29;20138;-69
2022/06/24 05:50:56;;;;;;;19.88;14.00;;;;;;;;;;4951723;29;20090;-70
2022/06/24 05:56:06;;;;;;;25.90;14.30;;;;;;;18.80;nan;100424.66;4950814;29;20042;-69
2022/06/24 05:58:32;;;;;;;22.85;15.18;;;;;;;18.80;nan;100421.97;4952199;29;20027;-69
2022/06/24 06:00:58;;;;;;;20.83;14.98;;;;;;;18.95;nan;100477.09;4955050;29;20019;-68
2022/06/24 06:03:25;;;;;;;20.73;15.05;;;;;;;19.09;nan;100472.72;4935471;29;20035;-68
2022/06/24 06:05:50;;;;;;;25.95;15.75;;;;;;;19.27;nan;100482.69;4951643;29;20503;-68
2022/06/24 06:08:17;;;;;;;20.02;15.52;;;;;;;19.27;nan;100457.84;4953141;28;20125;-67
2022/06/24 06:10:45;;;;;;;22.98;15.93;;;;;;;19.52;nan;100484.31;4935900;29;20394;-69
2022/06/24 06:13:12;;;;;;;19.50;14.95;;;;;;;19.61;nan;100478.34;4951056;29;20046;-69
2022/06/24 06:15:38;;;;;;;26.25;15.93;;;;;;;19.70;nan;100482.81;4952132;28;20125;-68
2022/06/24 06:18:05;;;;;;;20.58;15.02;;;;;;;19.55;nan;100440.22;4952921;29;20463;-69
2022/06/24 06:20:30;;;;;;;22.30;15.65;;;;;;;19.88;nan;100477.84;4950502;29;20039;-69
2022/06/24 06:22:55;;;;;;;25.08;15.35;;;;;;;19.96;nan;100479.88;4950528;29;20058;-70
2022/06/24 06:25:22;;;;;;;18.65;14.68;;;;;;;19.94;nan;100472.16;4953032;29;20031;-69
2022/06/24 06:27:49;;;;;;;19.98;14.20;;;;;;;20.10;nan;100474.63;4936469;29;20122;-71
2022/06/24 06:30:15;;;;;;;22.25;14.15;;;;;;;20.22;nan;100471.56;4948025;29;20062;-70
2022/06/24 06:32:40;;;;;;;16.92;13.00;;;;;;;20.45;nan;100467.22;4948854;28;20497;-69
2022/06/24 06:35:06;;;;;;;22.65;12.77;;;;;;;20.39;nan;100450.44;4948935;29;20106;-71
2022/06/24 06:37:31;;;;;;;17.45;13.18;;;;;;;20.37;nan;100415.16;4932249;29;20043;-72
2022/06/24 06:39:57;;;;;;;16.70;12.32;;;;;;;20.65;nan;100453.56;4931739;29;20038;-70
2022/06/24 06:42:22;;;;;;;15.23;11.18;;;;;;;20.81;nan;100448.78;4930889;29;20035;-70
2022/06/24 06:44:48;;;;;;;14.30;11.38;;;;;;;20.91;nan;100462.00;4931080;29;20042;-70
2022/06/24 06:47:13;;;;;;;14.90;10.05;;;;;;;20.93;nan;100456.38;4934467;29;20043;-70
2022/06/24 06:49:39;;;;;;;15.10;9.15;;;;;;;21.06;nan;100462.84;4931137;29;20040;-71
2022/06/24 06:52:05;;;;;;;18.73;11.02;;;;;;;21.11;nan;100462.75;4931529;29;20038;-71
2022/06/24 06:54:30;;;;;;;15.38;10.18;;;;;;;21.12;nan;100441.06;4947483;28;20540;-71
2022/06/24 06:56:59;;;;;;;20.45;10.30;;;;;;;21.29;nan;100461.13;4934110;29;20446;-71
2022/06/24 06:59:25;;;;;;;13.93;9.50;;;;;;;21.36;nan;100464.22;4931886;29;20070;-70
2022/06/24 07:01:51;;;;;;;10.18;7.93;;;;;;;21.52;nan;100457.50;4934222;29;20055;-69
2022/06/24 07:04:16;;;;;;;11.65;8.32;;;;;;;21.60;nan;100456.03;4932772;29;20051;-69
2022/06/24 07:06:41;;;;;;;14.32;9.73;;;;;;;21.75;nan;100450.34;4948670;29;20031;-71
2022/06/24 07:09:07;;;;;;;11.10;8.80;;;;;;;21.80;nan;100444.91;4930579;29;20029;-71
2022/06/24 07:11:33;;;;;;;12.57;7.68;;;;;;;21.94;nan;100454.81;4947949;29;20410;-71
2022/06/24 07:13:59;;;;;;;13.38;7.70;;;;;;;21.96;nan;100458.78;4927583;29;20043;-70
2022/06/24 07:16:24;;;;;;;12.98;8.25;;;;;;;22.06;nan;100461.25;4931279;29;20130;-71
2022/06/24 07:18:49;;;;;;;12.73;6.80;;;;;;;22.12;nan;100450.41;4931491;29;20135;-70
2022/06/24 07:21:15;;;;;;;10.30;6.90;;;;;;;22.34;nan;100461.25;4930557;29;20034;-67
2022/06/24 07:23:41;;;;;;;8.38;5.85;;;;;;;22.40;nan;100456.53;4928777;29;20062;-68
2022/06/24 07:26:07;;;;;;;9.68;5.47;;;;;;;22.48;nan;100450.44;4932201;29;20044;-68
2022/06/24 07:28:37;;;;;;;11.25;5.85;;;;;;;22.46;nan;100445.41;4925444;29;20099;-68
2022/06/24 07:31:19;;;;;;;13.30;6.13;;;;;;;22.61;nan;100463.03;4928722;29;20386;-69
2022/06/24 07:33:45;;;;;;;8.00;5.10;;;;;;;22.70;nan;100457.75;4928550;29;20035;-69
2022/06/24 07:36:11;;;;;;;9.40;4.75;;;;;;;22.78;nan;100453.53;4944966;29;20051;-69
2022/06/24 07:38:37;;;;;;;6.85;5.00;;;;;;;22.84;nan;100449.59;4950406;29;20043;-69
2022/06/24 07:41:03;;;;;;;13.15;5.00;;;;;;;23.02;nan;100455.94;4952922;29;20544;-70
2022/06/24 07:43:29;;;;;;;8.40;4.82;;;;;;;23.14;nan;100462.31;4947713;29;20486;-69
2022/06/24 07:45:54;;;;;;;8.65;4.53;;;;;;;23.21;nan;100453.81;4951547;29;20038;-68
2022/06/24 07:48:20;;;;;;;10.95;4.78;;;;;;;23.30;nan;100440.44;4949105;29;20119;-68
2022/06/24 07:50:46;;;;;;;10.55;3.70;;;;;;;23.38;nan;100437.00;4951635;28;20039;-68
2022/06/24 07:53:11;;;;;;;5.65;3.83;;;;;;;23.46;nan;100446.19;4949306;28;20429;-69
2022/06/24 07:58:38;;;;;;;5.90;4.38;;;;;;;23.56;nan;100444.03;4893077;29;20040;-67
2022/06/24 08:01:03;;;;;;;7.93;4.05;;;;;;;23.56;nan;100440.53;4876280;29;20116;-68
2022/06/24 08:03:29;;;;;;;6.65;4.40;;;;;;;23.65;nan;100437.88;4887032;29;20601;-67
2022/06/24 08:05:54;;;;;;;6.57;3.90;;;;;;;23.75;nan;100434.91;4893550;29;20032;-68
2022/06/24 08:08:20;;;;;;;8.15;3.40;;;;;;;23.81;nan;100441.75;4893054;29;20120;-67
2022/06/24 08:10:45;;;;;;;7.50;3.75;;;;;;;23.92;nan;100432.28;4892414;29;20040;-68
2022/06/24 08:13:10;;;;;;;7.03;3.97;;;;;;;23.97;nan;100437.50;4891576;29;20132;-69
2022/06/24 08:15:36;;;;;;;3.97;3.47;;;;;;;24.03;nan;100421.22;4892470;29;20074;-68
2022/06/24 08:18:01;;;;;;;5.63;3.30;;;;;;;24.13;nan;100420.91;4892337;29;20037;-69
2022/06/24 08:20:27;;;;;;;3.60;2.90;;;;;;;24.20;nan;100408.56;4891984;29;20456;-69
2022/06/24 08:22:52;;;;;;;4.43;2.70;;;;;;;24.34;nan;100423.78;4895028;29;20440;-68
2022/06/24 08:25:19;;;;;;;4.72;3.25;;;;;;;24.32;nan;100421.38;4891033;29;20048;-68
2022/06/24 08:27:44;;;;;;;5.13;3.42;;;;;;;24.43;nan;100424.56;4892092;29;20495;-67
2022/06/24 08:30:10;;;;;;;4.10;3.42;;;;;;;24.46;nan;100421.25;4878941;29;20056;-67
2022/06/24 08:32:36;;;;;;;2.92;2.25;;;;;;;24.50;nan;100410.66;4920649;29;20139;-66
2022/06/24 08:35:01;;;;;;;6.50;2.60;;;;;;;24.65;nan;100422.84;4944032;29;20089;-68
2022/06/24 08:37:26;;;;;;;7.45;2.38;;;;;;;24.74;nan;100408.25;4941584;29;20094;-67
2022/06/24 08:39:52;;;;;;;3.80;2.33;;;;;;;24.81;nan;100405.84;4951872;29;20037;-67
2022/06/24 08:42:18;;;;;;;4.78;2.40;;;;;;;24.90;nan;100413.91;4949787;29;20031;-72
2022/06/24 08:44:44;;;;;;;3.67;2.50;;;;;;;25.03;nan;100412.13;4953650;29;20023;-73
2022/06/24 08:47:17;;;;;;;6.50;2.65;;;;;;;25.10;nan;100409.72;4950322;29;20053;-72
2022/06/24 08:49:43;;;;;;;3.15;2.10;;;;;;;25.13;nan;100417.16;4954711;29;20050;-72
2022/06/24 08:52:11;;;;;;;6.65;2.30;;;;;;;25.18;nan;100411.63;4952950;29;20043;-72
2022/06/24 08:54:41;;;;;;;4.82;2.28;;;;;;;25.23;nan;100416.84;4952216;28;20501;-72
2022/06/24 08:57:07;;;;;;;4.65;2.35;;;;;;;25.24;nan;100414.94;4951214;29;20490;-71
2022/06/24 08:59:32;;;;;;;3.47;2.20;;;;;;;25.28;nan;100412.38;4954383;29;20035;-72
2022/06/24 09:01:58;;;;;;;5.75;2.42;;;;;;;25.33;nan;100402.22;4954386;29;20130;-72
2022/06/24 09:04:23;;;;;;;3.28;2.30;;;;;;;25.40;nan;100412.50;4935417;29;20493;-72
2022/06/24 09:06:49;;;;;;;3.17;1.83;;;;;;;25.42;nan;100410.25;4954695;29;20027;-72
2022/06/24 09:09:25;;;;;;;4.07;1.80;;;;;;;25.40;nan;100407.09;4955205;29;20409;-72
2022/06/24 09:12:00;;;;;;;1.50;1.40;;;;;;;25.51;nan;100408.31;4954173;29;20125;-73
2022/06/24 09:14:47;;;;;;;8.15;2.60;;;;;;;25.58;nan;100415.91;4952647;29;20509;-73
2022/06/24 09:17:12;;;;;;;3.38;2.00;;;;;;;25.62;nan;100398.75;4949932;29;20039;-73
2022/06/24 09:19:38;;;;;;;2.65;2.20;;;;;;;25.76;nan;100409.28;4952745;29;20031;-73
2022/06/24 09:22:05;;;;;;;5.70;2.20;;;;;;;25.79;nan;100399.75;4955790;29;20027;-72
2022/06/24 09:24:43;;;;;;;2.55;2.10;;;;;;;25.88;nan;100404.00;4948892;29;20031;-72
2022/06/24 09:27:08;;;;;;;5.93;2.40;;;;;;;25.93;nan;100400.34;4933259;29;20122;-71
2022/06/24 09:29:34;;;;;;;3.47;2.30;;;;;;;25.94;nan;100393.81;4950712;29;20545;-71
2022/06/24 09:32:09;;;;;;;3.30;2.10;;;;;;;26.09;nan;100387.03;4930260;29;20035;-72
2022/06/24 09:34:35;;;;;;;2.78;2.10;;;;;;;26.11;nan;100398.28;4936541;29;20035;-71
2022/06/24 09:37:00;;;;;;;5.60;2.40;;;;;;;26.15;nan;100385.72;4951545;29;20067;-73
2022/06/24 09:39:26;;;;;;;3.33;2.38;;;;;;;26.20;nan;100388.22;4952350;29;20039;-67
2022/06/24 09:41:55;;;;;;;3.85;2.20;;;;;;;26.25;nan;100398.03;4954669;29;20035;-66
2022/06/24 09:44:24;;;;;;;5.28;2.63;;;;;;;26.23;nan;100381.34;4951330;29;20038;-72
2022/06/24 09:47:02;;;;;;;3.58;2.05;;;;;;;26.38;nan;100382.66;4951167;29;20031;-68
2022/06/24 09:49:28;;;;;;;2.88;1.92;;;;;;;26.42;nan;100384.34;4952361;28;20038;-67
2022/06/24 09:51:55;;;;;;;4.68;2.33;;;;;;;26.52;nan;100383.94;4951145;29;20034;-67
2022/06/24 09:54:21;;;;;;;2.30;2.10;;;;;;;26.60;nan;100382.31;4951101;28;20099;-73
2022/06/24 09:56:47;;;;;;;3.70;2.17;;;;;;;26.60;nan;100370.72;4948542;29;20038;-71
2022/06/24 10:01:59;;;;;;;6.28;2.30;;;;;;;26.75;nan;100366.59;4952451;29;20043;-71
2022/06/24 10:04:26;;;;;;;3.00;2.20;;;;;;;26.72;nan;100366.13;4931932;29;20035;-70
2022/06/24 10:06:55;;;;;;;6.15;2.45;;;;;;;26.82;nan;100373.03;4951317;29;20035;-70
2022/06/24 10:09:25;;;;;;;3.05;2.20;;;;;;;26.92;nan;100383.38;4949880;29;20034;-72
2022/06/24 10:11:52;;;;;;;3.80;2.20;;;;;;;26.94;nan;100373.03;4950704;29;20039;-72
2022/06/24 10:14:19;;;;;;;3.38;1.88;;;;;;;26.97;nan;100360.75;4949499;29;20039;-72
2022/06/24 10:16:48;;;;;;;2.00;1.80;;;;;;;27.17;nan;100365.28;4949360;29;20031;-73
2022/06/24 10:19:16;;;;;;;2.53;1.80;;;;;;;27.20;nan;100363.03;4953211;29;20125;-72
2022/06/24 10:21:42;;;;;;;3.80;1.97;;;;;;;27.30;nan;100362.63;4954464;28;20071;-71
2022/06/24 10:24:11;;;;;;;2.10;1.90;;;;;;;27.28;nan;100373.75;4950725;29;20070;-72
2022/06/24 10:26:39;;;;;;;4.78;2.10;;;;;;;27.28;nan;100371.06;4950970;29;20118;-72
2022/06/24 10:29:04;;;;;;;4.97;2.00;;;;;;;27.29;nan;100379.94;4949943;29;20397;-72
2022/06/24 10:31:45;;;;;;;3.13;1.98;;;;;;;27.29;nan;100372.63;4953871;28;20039;-73
2022/06/24 10:34:22;;;;;;;2.90;2.28;;;;;;;27.32;nan;100363.84;4948317;28;20059;-73
2022/06/24 10:36:57;;;;;;;4.45;2.00;;;;;;;27.29;nan;100361.81;4953137;29;20142;-72
2022/06/24 10:39:25;;;;;;;5.00;1.98;;;;;;;27.23;nan;100365.88;4953178;29;20444;-72
2022/06/24 10:42:03;;;;;;;3.78;2.10;;;;;;;27.28;nan;100367.56;4951640;29;20042;-74
2022/06/24 10:44:37;;;;;;;2.00;1.65;;;;;;;27.40;nan;100370.28;4947285;29;20123;-73
2022/06/24 10:47:05;;;;;;;2.60;1.75;;;;;;;27.47;nan;100373.19;4950061;29;20043;-73
2022/06/24 10:49:52;;;;;;;2.13;1.70;;;;;;;27.56;nan;100364.97;4952111;29;20042;-73
2022/06/24 10:52:59;;;;;;;1.95;1.77;;;;;;;27.61;nan;100364.72;4952933;29;20751;-72
2022/06/24 10:55:31;;;;;;;2.10;1.90;;;;;;;27.60;nan;100362.34;4894209;29;20040;-71
2022/06/24 10:58:10;;;;;;;3.47;1.70;;;;;;;27.69;nan;100363.78;4881225;29;20036;-72
2022/06/24 11:00:48;;;;;;;3.00;1.73;;;;;;;27.81;nan;100370.31;4894273;29;20032;-72
2022/06/24 11:03:19;;;;;;;3.38;1.80;;;;;;;27.84;nan;100362.31;4878897;29;20172;-72
2022/06/24 11:05:46;;;;;;;3.97;1.75;;;;;;;27.83;nan;100368.09;4878868;29;20050;-71
2022/06/24 11:08:20;;;;;;;9.43;2.63;;;;;;;27.91;nan;100353.63;4894514;29;20044;-72
2022/06/24 11:10:49;;;;;;;2.65;1.73;;;;;;;27.82;nan;100325.88;4894446;29;20040;-72
2022/06/24 11:13:16;;;;;;;5.70;1.60;;;;;;;28.07;nan;100348.28;4894511;29;20032;-71
2022/06/24 11:16:08;;;;;;;5.32;1.77;;;;;;;28.15;nan;100350.81;4894375;29;20044;-72
2022/06/24 11:18:35;;;;;;;2.42;1.70;;;;;;;28.21;nan;100351.38;4891061;29;20036;-72
2022/06/24 11:21:04;;;;;;;3.45;1.92;;;;;;;28.31;nan;100344.69;4894128;29;20032;-70
2022/06/24 11:23:31;;;;;;;;;;;;;;;28.42;nan;100348.44;4894834;29;20040;-71
2022/06/24 11:26:00;;;;;;;2.13;1.73;;;;;;;28.40;nan;100345.31;4894160;29;19975;-70
2022/06/24 11:28:32;;;;;;;3.13;1.50;;;;;;;28.48;nan;100349.81;4902451;29;20047;-72
2022/06/24 11:31:13;;;;;;;5.28;2.13;;;;;;;28.60;nan;100343.53;4951936;29;20042;-71
2022/06/24 11:33:39;;;;;;;4.50;1.50;;;;;;;28.64;nan;100333.56;4949518;28;20077;-73
2022/06/24 11:36:05;;;;;;;4.15;1.92;;;;;;;28.68;nan;100329.00;4952580;29;20603;-71
2022/06/24 11:38:36;;;;;;;1.58;1.42;;;;;;;28.77;nan;100331.56;4952049;29;20027;-73
2022/06/24 11:41:02;;;;;;;2.83;1.65;;;;;;;28.85;nan;100322.44;4947694;29;20090;-72
2022/06/24 11:43:27;;;;;;;6.22;1.80;;;;;;;28.79;nan;100308.38;4952315;29;20038;-72
2022/06/24 11:45:57;;;;;;;1.40;1.30;;;;;;;28.84;nan;100304.63;4950596;29;20035;-71
2022/06/24 11:48:24;;;;;;;1.85;1.40;;;;;;;28.89;nan;100309.78;4949091;29;20035;-72
2022/06/24 11:50:53;;;;;;;2.47;1.40;;;;;;;29.04;nan;100319.84;4950009;29;20541;-71
2022/06/24 11:53:25;;;;;;;1.77;1.35;;;;;;;29.12;nan;100314.63;4949929;29;20397;-71
2022/06/24 11:55:52;;;;;;;4.88;1.58;;;;;;;29.10;nan;100306.03;4951963;29;20027;-71
2022/06/24 11:58:20;;;;;;;3.25;1.70;;;;;;;29.08;nan;100297.47;4953066;29;20031;-72
2022/06/24 12:00:46;;;;;;;2.95;1.40;;;;;;;29.17;nan;100298.06;4948715;29;20056;-71
2022/06/24 12:03:13;;;;;;;4.47;1.52;;;;;;;29.27;nan;100297.50;4950936;29;20039;-71
2022/06/24 12:05:42;;;;;;;1.85;1.40;;;;;;;29.31;nan;100311.94;4949541;29;20031;-72
2022/06/24 12:08:09;;;;;;;2.33;1.42;;;;;;;29.42;nan;100304.81;4952005;29;20036;-70
2022/06/24 12:10:35;;;;;;;2.63;1.50;;;;;;;29.44;nan;100312.59;4949120;29;20473;-71
2022/06/24 12:13:07;;;;;;;2.40;1.73;;;;;;;29.43;nan;100300.19;4955483;28;20035;-72
2022/06/24 12:15:41;;;;;;;4.20;1.50;;;;;;;29.56;nan;100303.56;4950596;29;20031;-71
2022/06/24 12:18:14;;;;;;;4.88;1.70;;;;;;;29.59;nan;100298.19;4955947;28;20436;-72
2022/06/24 12:20:40;;;;;;;4.28;1.30;;;;;;;29.71;nan;100296.50;4951846;29;20035;-71
2022/06/24 12:23:14;;;;;;;2.17;1.70;;;;;;;29.75;nan;100294.66;4955168;29;20081;-70
2022/06/24 12:25:45;;;;;;;3.60;1.60;;;;;;;29.75;nan;100278.38;4937567;29;20043;-71
2022/06/24 12:28:31;;;;;;;1.52;1.30;;;;;;;29.83;nan;100285.50;4950340;29;20071;-70
2022/06/24 12:31:07;;;;;;;3.17;1.60;;;;;;;29.90;nan;100277.50;4954522;29;20039;-71
2022/06/24 12:33:34;;;;;;;4.45;1.70;;;;;;;29.95;nan;100260.91;4952551;29;20031;-72
2022/06/24 12:36:14;;;;;;;2.60;1.50;;;;;;;30.19;nan;100278.81;4954911;29;20417;-72
2022/06/24 12:38:41;;;;;;;2.83;1.60;;;;;;;30.33;nan;100285.69;4954640;29;20031;-71
2022/06/24 12:41:25;;;;;;;2.70;1.50;;;;;;;30.43;nan;100280.44;4953430;29;20035;-70
2022/06/24 12:44:08;;;;;;;4.50;1.60;;;;;;;30.48;nan;100269.25;4953570;29;20028;-71
2022/06/24 12:46:33;;;;;;;3.85;1.52;;;;;;;30.53;nan;100254.59;4956015;29;20031;-70